Time;durP1;ratioP1;P1;durP2;ratioP2;P2;SDS_P1;SDS_P2;PMS_P1;PMS_P2;Temp;Humidity;BMP_temperature;BMP_pressure;BME280_temperature;BME280_humidity;BME280_pressure;Samples;Min_cycle;Max_cycle;Signal;HPM_P1;HPM_P2
2021/10/14 00:00:22;;;;;;;11.07;3.42;;;13.30;99.90;;;;;;2067384;28;20493;-69
2021/10/14 00:01:22;;;;;;;7.35;3.10;;;13.30;99.90;;;;;;2071633;28;20014;-68
2021/10/14 00:02:23;;;;;;;7.03;3.33;;;13.30;99.90;;;;;;2071379;28;20030;-69
2021/10/14 00:03:24;;;;;;;5.93;3.22;;;13.30;99.90;;;;;;2069903;28;20649;-69
2021/10/14 00:04:24;;;;;;;9.70;3.58;;;13.30;99.90;;;;;;2063457;28;20022;-69
2021/10/14 00:05:25;;;;;;;8.85;3.50;;;13.30;99.90;;;;;;2067473;28;20029;-69
2021/10/14 00:06:25;;;;;;;8.40;3.95;;;13.30;99.90;;;;;;2071568;28;20022;-69
2021/10/14 00:07:26;;;;;;;7.10;3.22;;;13.30;99.90;;;;;;2063549;28;20026;-69
2021/10/14 00:08:27;;;;;;;7.10;2.90;;;13.30;99.90;;;;;;2062776;28;20022;-69
2021/10/14 00:09:27;;;;;;;8.10;3.53;;;13.30;99.90;;;;;;2063490;28;20022;-69
2021/10/14 00:10:29;;;;;;;9.13;3.33;;;13.30;99.90;;;;;;2063578;28;20030;-69
2021/10/14 00:11:29;;;;;;;8.70;3.60;;;13.30;99.90;;;;;;2063241;28;20030;-69
2021/10/14 00:12:30;;;;;;;11.20;3.63;;;13.30;99.90;;;;;;2063378;28;20374;-69
2021/10/14 00:13:31;;;;;;;9.38;3.80;;;13.30;99.90;;;;;;2064412;28;20046;-69
2021/10/14 00:14:31;;;;;;;7.20;3.53;;;13.30;99.90;;;;;;2064328;28;20061;-69
2021/10/14 00:15:32;;;;;;;9.50;3.53;;;13.30;99.90;;;;;;2071264;28;20486;-69
2021/10/14 00:16:33;;;;;;;9.65;3.67;;;13.30;99.90;;;;;;2067866;28;20688;-69
2021/10/14 00:17:33;;;;;;;6.45;3.10;;;13.30;99.90;;;;;;2063266;28;20038;-69
2021/10/14 00:18:34;;;;;;;7.80;3.55;;;13.30;99.90;;;;;;2067070;28;20037;-69
2021/10/14 00:19:35;;;;;;;9.40;3.88;;;13.30;99.90;;;;;;2069196;28;20060;-69
2021/10/14 00:20:35;;;;;;;13.30;4.20;;;13.30;99.90;;;;;;2068210;28;20121;-69
2021/10/14 00:21:36;;;;;;;7.97;3.28;;;13.30;99.90;;;;;;2070509;28;20037;-69
2021/10/14 00:22:36;;;;;;;9.73;3.58;;;13.30;99.90;;;;;;2070813;28;20060;-69
2021/10/14 00:23:37;;;;;;;6.07;3.28;;;13.30;99.90;;;;;;2075627;28;20057;-69
2021/10/14 00:24:38;;;;;;;8.68;3.67;;;13.30;99.90;;;;;;2079025;28;20500;-69
2021/10/14 00:25:39;;;;;;;9.90;3.85;;;13.30;99.90;;;;;;2070850;28;20021;-69
2021/10/14 00:26:40;;;;;;;10.95;3.60;;;13.30;99.90;;;;;;2064962;28;20073;-69
2021/10/14 00:27:41;;;;;;;11.13;4.63;;;13.30;99.90;;;;;;2063309;28;20038;-69
2021/10/14 00:28:41;;;;;;;6.05;3.60;;;13.30;99.90;;;;;;2069207;28;20038;-69
2021/10/14 00:29:42;;;;;;;8.98;3.83;;;13.30;99.90;;;;;;2065898;28;20549;-69
2021/10/14 00:30:42;;;;;;;7.70;3.70;;;13.30;99.90;;;;;;2063520;28;20057;-69
2021/10/14 00:31:43;;;;;;;8.35;3.95;;;13.30;99.90;;;;;;2063266;28;20031;-69
2021/10/14 00:32:43;;;;;;;12.30;4.53;;;13.30;99.90;;;;;;2066402;28;20034;-69
2021/10/14 00:33:44;;;;;;;7.18;3.80;;;13.30;99.90;;;;;;2071262;28;20022;-69
2021/10/14 00:34:44;;;;;;;6.97;4.30;;;13.30;99.90;;;;;;2064701;28;20031;-69
2021/10/14 00:35:45;;;;;;;7.88;4.38;;;13.30;99.90;;;;;;2063002;28;20040;-69
2021/10/14 00:36:45;;;;;;;11.38;4.07;;;13.30;99.90;;;;;;2066233;28;20431;-69
2021/10/14 00:37:46;;;;;;;9.63;4.18;;;13.30;99.90;;;;;;2068842;28;20034;-69
2021/10/14 00:38:46;;;;;;;10.00;4.40;;;13.30;99.90;;;;;;2070413;28;20041;-69
2021/10/14 00:39:47;;;;;;;9.20;4.45;;;13.30;99.90;;;;;;2069538;28;20037;-69
2021/10/14 00:40:48;;;;;;;12.27;4.25;;;13.30;99.90;;;;;;2068219;28;20037;-69
2021/10/14 00:41:49;;;;;;;8.98;3.97;;;13.30;99.90;;;;;;2068234;28;20025;-69
2021/10/14 00:42:49;;;;;;;8.88;4.03;;;13.30;99.90;;;;;;2064536;28;20137;-69
2021/10/14 00:43:55;;;;;;;10.93;4.68;;;13.30;99.90;;;;;;2063453;28;20030;-69
2021/10/14 00:44:56;;;;;;;11.77;4.47;;;13.30;99.90;;;;;;2062907;28;20041;-69
2021/10/14 00:45:56;;;;;;;11.82;4.05;;;13.30;99.90;;;;;;2063467;28;20030;-69
2021/10/14 00:46:57;;;;;;;11.95;3.80;;;13.30;99.90;;;;;;2063525;28;20106;-69
2021/10/14 00:47:57;;;;;;;7.43;3.95;;;13.30;99.90;;;;;;2071380;28;20100;-69
2021/10/14 00:48:58;;;;;;;7.75;4.03;;;13.30;99.90;;;;;;2070400;28;20041;-69
2021/10/14 00:49:59;;;;;;;11.13;4.20;;;13.30;99.90;;;;;;2071366;28;20354;-69
2021/10/14 00:50:59;;;;;;;8.18;3.55;;;13.30;99.90;;;;;;2064379;28;20549;-69
2021/10/14 00:52:00;;;;;;;7.82;3.83;;;13.30;99.90;;;;;;2063126;28;20442;-69
2021/10/14 00:53:01;;;;;;;5.13;3.72;;;13.30;99.90;;;;;;2063027;28;20092;-69
2021/10/14 00:54:01;;;;;;;7.97;3.88;;;13.30;99.90;;;;;;2063865;28;20915;-69
2021/10/14 00:55:03;;;;;;;9.15;4.28;;;13.30;99.90;;;;;;2070776;28;20059;-69
2021/10/14 00:56:05;;;;;;;8.38;3.75;;;13.30;99.90;;;;;;2063369;28;20410;-69
2021/10/14 00:57:06;;;;;;;7.53;3.67;;;13.30;99.90;;;;;;2064203;28;20391;-69
2021/10/14 00:58:07;;;;;;;7.63;3.70;;;13.30;99.90;;;;;;2071119;28;20076;-69
2021/10/14 00:59:10;;;;;;;6.82;3.40;;;13.30;99.90;;;;;;2068521;28;20032;-69
2021/10/14 01:00:11;;;;;;;10.25;4.22;;;13.30;99.90;;;;;;2067858;28;20040;-69
2021/10/14 01:01:11;;;;;;;7.05;3.90;;;13.30;99.90;;;;;;2062731;28;20022;-69
2021/10/14 01:02:12;;;;;;;7.88;4.05;;;13.20;99.90;;;;;;2068089;28;20108;-69
2021/10/14 01:03:13;;;;;;;9.45;4.05;;;13.20;99.90;;;;;;2070403;28;20034;-69
2021/10/14 01:04:13;;;;;;;7.57;3.65;;;13.20;99.90;;;;;;2063393;28;20471;-69
2021/10/14 01:05:14;;;;;;;7.47;4.00;;;13.20;99.90;;;;;;2062860;28;20077;-69
2021/10/14 01:06:14;;;;;;;6.97;3.67;;;13.20;99.90;;;;;;2063356;28;20168;-69
2021/10/14 01:07:15;;;;;;;8.25;4.00;;;13.20;99.90;;;;;;2063029;28;20033;-69
2021/10/14 01:08:16;;;;;;;8.80;4.10;;;13.20;99.90;;;;;;2062603;28;20026;-69
2021/10/14 01:09:16;;;;;;;10.00;4.10;;;13.20;99.90;;;;;;2067893;28;20031;-69
2021/10/14 01:10:17;;;;;;;7.60;4.03;;;13.20;99.90;;;;;;2063310;28;20049;-69
2021/10/14 01:11:17;;;;;;;8.55;3.38;;;13.20;99.90;;;;;;2065125;28;20026;-69
2021/10/14 01:12:19;;;;;;;9.35;4.50;;;13.20;99.90;;;;;;2063060;28;20038;-69
2021/10/14 01:13:19;;;;;;;6.72;3.80;;;13.20;99.90;;;;;;2063040;28;20063;-69
2021/10/14 01:14:20;;;;;;;8.18;4.45;;;13.20;99.90;;;;;;2063180;28;20023;-69
2021/10/14 01:15:26;;;;;;;9.88;4.05;;;13.20;99.90;;;;;;2063057;28;20057;-68
2021/10/14 01:16:26;;;;;;;7.55;4.18;;;13.20;99.90;;;;;;2065937;28;20065;-69
2021/10/14 01:17:27;;;;;;;5.93;3.75;;;13.20;99.90;;;;;;2070359;28;20092;-69
2021/10/14 01:18:27;;;;;;;7.90;3.95;;;13.20;99.90;;;;;;2065836;28;20026;-69
2021/10/14 01:19:29;;;;;;;12.23;4.53;;;13.20;99.90;;;;;;2063065;28;20041;-69
2021/10/14 01:20:30;;;;;;;8.13;4.40;;;13.30;99.90;;;;;;2062942;28;20112;-69
2021/10/14 01:21:32;;;;;;;9.88;3.92;;;13.20;99.90;;;;;;2066277;28;20030;-69
2021/10/14 01:22:32;;;;;;;16.13;4.82;;;13.20;99.90;;;;;;2071332;28;20029;-69
2021/10/14 01:23:33;;;;;;;8.50;4.47;;;13.20;99.90;;;;;;2070824;28;20022;-69
2021/10/14 01:24:34;;;;;;;9.63;4.95;;;13.20;99.90;;;;;;2071058;28;20564;-69
2021/10/14 01:25:35;;;;;;;9.35;4.45;;;13.30;99.90;;;;;;2071242;28;20038;-69
2021/10/14 01:26:38;;;;;;;9.45;5.38;;;13.20;99.90;;;;;;2071068;28;20030;-69
2021/10/14 01:27:39;;;;;;;9.82;5.60;;;13.20;99.90;;;;;;2070815;28;20530;-69
2021/10/14 01:28:39;;;;;;;10.57;4.95;;;13.30;99.90;;;;;;2063740;28;20410;-69
2021/10/14 01:29:40;;;;;;;10.32;5.82;;;13.30;99.90;;;;;;2064338;28;20038;-69
2021/10/14 01:30:41;;;;;;;10.77;6.13;;;13.20;99.90;;;;;;2064614;28;20030;-69
2021/10/14 01:31:41;;;;;;;8.80;5.63;;;13.30;99.90;;;;;;2064537;28;20045;-69
2021/10/14 01:32:44;;;;;;;9.02;5.78;;;13.20;99.90;;;;;;2065947;28;20535;-69
2021/10/14 01:33:44;;;;;;;12.57;6.88;;;13.30;99.90;;;;;;2064751;28;20026;-69
2021/10/14 01:34:45;;;;;;;11.48;6.28;;;13.30;99.90;;;;;;2064268;28;20045;-69
2021/10/14 01:35:45;;;;;;;10.02;6.45;;;13.30;99.90;;;;;;2064319;28;20072;-69
2021/10/14 01:36:46;;;;;;;9.30;5.93;;;13.30;99.90;;;;;;2070718;28;20907;-69
2021/10/14 01:37:46;;;;;;;16.23;7.50;;;13.30;99.90;;;;;;2068656;28;20030;-69
2021/10/14 01:38:47;;;;;;;13.43;6.55;;;13.30;99.90;;;;;;2070160;28;20037;-69
2021/10/14 01:39:48;;;;;;;12.10;6.90;;;13.30;99.90;;;;;;2063908;28;20037;-69
2021/10/14 01:40:48;;;;;;;11.30;6.85;;;13.30;99.90;;;;;;2070835;28;20077;-69
2021/10/14 01:41:51;;;;;;;10.63;6.60;;;13.30;99.90;;;;;;2071930;28;20101;-69
2021/10/14 01:42:52;;;;;;;11.18;7.00;;;13.30;99.90;;;;;;2065881;28;20034;-69
2021/10/14 01:43:53;;;;;;;9.52;6.30;;;13.30;99.90;;;;;;2064371;28;20029;-69
2021/10/14 01:44:53;;;;;;;10.57;6.18;;;13.30;99.90;;;;;;2072888;28;20060;-69
2021/10/14 01:45:54;;;;;;;11.40;6.00;;;13.30;99.90;;;;;;2068287;28;20026;-69
2021/10/14 01:46:55;;;;;;;10.98;6.50;;;13.30;99.90;;;;;;2072733;28;20029;-69
2021/10/14 01:47:55;;;;;;;11.27;7.22;;;13.30;99.90;;;;;;2065054;28;20034;-69
2021/10/14 01:48:56;;;;;;;12.68;7.38;;;13.20;99.90;;;;;;2070238;28;20410;-69
2021/10/14 01:49:57;;;;;;;12.77;7.47;;;13.20;99.90;;;;;;2072527;28;20029;-69
2021/10/14 01:50:59;;;;;;;10.30;6.80;;;13.20;99.90;;;;;;2067823;28;20030;-69
2021/10/14 01:51:59;;;;;;;10.98;7.25;;;13.20;99.90;;;;;;2067610;28;20030;-69
2021/10/14 01:53:00;;;;;;;11.75;7.00;;;13.20;99.90;;;;;;2072470;28;20045;-69
2021/10/14 01:54:00;;;;;;;17.13;8.18;;;13.20;99.90;;;;;;2072406;28;20379;-69
2021/10/14 01:55:02;;;;;;;13.60;7.15;;;13.20;99.90;;;;;;2072564;28;20034;-69
2021/10/14 01:56:03;;;;;;;12.10;7.80;;;13.20;99.90;;;;;;2070366;28;20949;-69
2021/10/14 01:57:03;;;;;;;14.23;6.93;;;13.10;99.90;;;;;;2065470;28;20033;-69
2021/10/14 01:58:04;;;;;;;15.48;7.43;;;13.10;99.90;;;;;;2072217;28;20128;-69
2021/10/14 01:59:04;;;;;;;14.02;7.18;;;13.10;99.90;;;;;;2069613;28;20022;-69
2021/10/14 02:00:07;;;;;;;12.48;8.05;;;13.10;99.90;;;;;;2071366;28;20108;-69
2021/10/14 02:01:08;;;;;;;12.98;7.97;;;13.10;99.90;;;;;;2064382;28;20134;-69
2021/10/14 02:02:08;;;;;;;11.25;8.20;;;13.10;99.90;;;;;;2064067;28;20026;-69
2021/10/14 02:03:09;;;;;;;13.45;8.35;;;13.10;99.90;;;;;;2064410;28;20041;-69
2021/10/14 02:04:09;;;;;;;15.57;8.27;;;13.10;99.90;;;;;;2064391;28;20022;-69
2021/10/14 02:05:10;;;;;;;14.27;7.72;;;13.00;99.90;;;;;;2064669;28;20034;-69
2021/10/14 02:06:11;;;;;;;12.48;6.80;;;13.00;99.90;;;;;;2072571;28;20030;-69
2021/10/14 02:07:11;;;;;;;15.98;8.70;;;13.00;99.90;;;;;;2066181;28;20022;-69
2021/10/14 02:08:12;;;;;;;16.17;8.98;;;13.00;99.90;;;;;;2063705;28;20030;-69
2021/10/14 02:09:13;;;;;;;16.60;8.98;;;13.00;99.90;;;;;;2063816;28;20375;-69
2021/10/14 02:10:14;;;;;;;12.15;8.38;;;13.00;99.90;;;;;;2067210;28;20057;-69
2021/10/14 02:11:14;;;;;;;13.43;8.30;;;13.00;99.90;;;;;;2072207;28;20022;-69
2021/10/14 02:12:15;;;;;;;12.65;8.50;;;13.00;99.90;;;;;;2064911;28;20163;-69
2021/10/14 02:13:15;;;;;;;13.18;9.00;;;13.00;99.90;;;;;;2064085;28;20080;-69
2021/10/14 02:14:16;;;;;;;13.85;8.15;;;12.90;99.90;;;;;;2068927;28;20030;-69
2021/10/14 02:15:16;;;;;;;11.85;8.43;;;13.00;99.90;;;;;;2066618;28;20022;-69
2021/10/14 02:16:17;;;;;;;15.68;9.32;;;13.00;99.90;;;;;;2066375;28;20022;-69
2021/10/14 02:17:18;;;;;;;14.45;9.45;;;13.00;99.90;;;;;;2071538;28;20022;-70
2021/10/14 02:18:18;;;;;;;15.80;9.52;;;13.00;99.90;;;;;;2071982;28;20443;-69
2021/10/14 02:19:18;;;;;;;14.93;9.25;;;13.00;99.90;;;;;;2071468;28;20044;-69
2021/10/14 02:20:19;;;;;;;13.25;9.60;;;13.00;99.90;;;;;;2065362;28;20065;-69
2021/10/14 02:21:20;;;;;;;19.23;9.90;;;13.00;99.90;;;;;;2063154;28;20018;-69
2021/10/14 02:22:20;;;;;;;16.23;9.00;;;13.00;99.90;;;;;;2063651;28;20029;-69
2021/10/14 02:23:21;;;;;;;12.13;9.02;;;13.00;99.90;;;;;;2064129;28;20033;-69
2021/10/14 02:24:21;;;;;;;12.20;9.38;;;13.00;99.90;;;;;;2065804;28;20383;-69
2021/10/14 02:25:22;;;;;;;15.77;10.20;;;13.00;99.90;;;;;;2063780;28;20103;-69
2021/10/14 02:26:22;;;;;;;15.57;8.30;;;12.90;99.90;;;;;;2063666;28;20022;-69
2021/10/14 02:27:23;;;;;;;13.93;9.30;;;13.00;99.90;;;;;;2064109;28;20034;-69
2021/10/14 02:28:23;;;;;;;13.48;10.05;;;13.00;99.90;;;;;;2063584;28;20040;-69
2021/10/14 02:29:24;;;;;;;13.88;10.60;;;13.00;99.90;;;;;;2064193;28;20061;-69
2021/10/14 02:30:24;;;;;;;18.95;11.77;;;13.00;99.90;;;;;;2064051;28;20026;-69
2021/10/14 02:31:25;;;;;;;13.50;10.68;;;12.90;99.90;;;;;;2064226;28;20034;-69
2021/10/14 02:32:26;;;;;;;15.50;10.82;;;13.00;99.90;;;;;;2064119;28;20022;-69
2021/10/14 02:33:26;;;;;;;15.98;10.70;;;13.00;99.90;;;;;;2071584;28;20034;-69
2021/10/14 02:34:27;;;;;;;15.85;11.48;;;12.90;99.90;;;;;;2069141;28;20954;-69
2021/10/14 02:35:27;;;;;;;16.40;12.07;;;12.90;99.90;;;;;;2064112;28;20049;-70
2021/10/14 02:36:28;;;;;;;15.95;10.82;;;13.00;99.90;;;;;;2067286;28;20053;-69
2021/10/14 02:37:28;;;;;;;16.23;11.20;;;12.90;99.90;;;;;;2070610;28;20149;-70
2021/10/14 02:38:29;;;;;;;15.23;11.15;;;12.90;99.90;;;;;;2065984;28;20029;-69
2021/10/14 02:39:30;;;;;;;17.80;11.80;;;12.90;99.90;;;;;;2068781;28;20065;-69
2021/10/14 02:40:31;;;;;;;19.30;11.48;;;12.90;99.90;;;;;;2072163;28;20022;-69
2021/10/14 02:41:32;;;;;;;15.23;10.57;;;12.90;99.90;;;;;;2064110;28;20030;-69
2021/10/14 02:42:32;;;;;;;17.20;10.57;;;12.90;99.90;;;;;;2071427;28;20053;-69
2021/10/14 02:43:33;;;;;;;17.33;11.05;;;12.90;99.90;;;;;;2071643;28;20113;-69
2021/10/14 02:44:33;;;;;;;17.30;12.13;;;12.90;99.90;;;;;;2063838;28;20505;-69
2021/10/14 02:45:34;;;;;;;17.17;12.23;;;12.90;99.90;;;;;;2065967;28;20029;-69
2021/10/14 02:46:35;;;;;;;17.90;12.63;;;12.90;99.90;;;;;;2071869;28;20830;-69
2021/10/14 02:47:35;;;;;;;17.13;11.40;;;12.90;99.90;;;;;;2071368;28;20116;-69
2021/10/14 02:48:36;;;;;;;16.73;11.50;;;12.90;99.90;;;;;;2071107;28;20041;-69
2021/10/14 02:49:36;;;;;;;16.48;11.95;;;12.90;99.90;;;;;;2077023;28;20025;-69
2021/10/14 02:50:37;;;;;;;16.17;12.35;;;12.90;99.90;;;;;;2073476;28;20109;-70
2021/10/14 02:51:38;;;;;;;25.00;13.02;;;12.90;99.90;;;;;;2068413;28;20026;-69
2021/10/14 02:52:40;;;;;;;16.13;11.95;;;12.90;99.90;;;;;;2066307;28;20034;-69
2021/10/14 02:53:40;;;;;;;15.82;11.38;;;12.90;99.90;;;;;;2070450;28;20137;-69
2021/10/14 02:54:41;;;;;;;19.65;12.00;;;12.80;99.90;;;;;;2064109;28;20030;-69
2021/10/14 02:55:41;;;;;;;14.40;11.63;;;12.80;99.90;;;;;;2066660;28;20371;-69
2021/10/14 02:56:42;;;;;;;14.48;11.48;;;12.80;99.90;;;;;;2072065;28;20477;-70
2021/10/14 02:57:42;;;;;;;16.70;11.13;;;12.80;99.90;;;;;;2070481;28;20068;-69
2021/10/14 02:58:43;;;;;;;15.25;11.48;;;12.80;99.90;;;;;;2069034;28;20027;-69
2021/10/14 02:59:43;;;;;;;18.08;12.20;;;12.80;99.90;;;;;;2068063;28;20105;-70
2021/10/14 03:00:44;;;;;;;16.65;11.55;;;12.70;99.90;;;;;;2069979;28;20489;-69
2021/10/14 03:01:44;;;;;;;17.38;11.65;;;12.70;99.90;;;;;;2071831;28;20026;-70
2021/10/14 03:02:45;;;;;;;12.90;10.13;;;12.70;99.90;;;;;;2071902;28;20690;-69
2021/10/14 03:03:45;;;;;;;16.27;11.30;;;12.70;99.90;;;;;;2071848;28;20030;-69
2021/10/14 03:04:46;;;;;;;15.00;11.88;;;12.70;99.90;;;;;;2071964;28;20056;-69
2021/10/14 03:05:47;;;;;;;15.88;11.77;;;12.70;99.90;;;;;;2064355;28;20109;-69
2021/10/14 03:06:47;;;;;;;16.35;11.80;;;12.70;99.90;;;;;;2064304;28;20033;-69
2021/10/14 03:07:48;;;;;;;13.18;11.10;;;12.70;99.90;;;;;;2068067;28;20032;-69
2021/10/14 03:08:48;;;;;;;13.68;12.10;;;12.70;99.90;;;;;;2065667;28;20030;-69
2021/10/14 03:09:49;;;;;;;15.63;11.48;;;12.70;99.90;;;;;;2063920;28;20089;-69
2021/10/14 03:10:49;;;;;;;15.77;12.10;;;12.60;99.90;;;;;;2063927;28;20062;-69
2021/10/14 03:11:50;;;;;;;18.25;11.90;;;12.60;99.90;;;;;;2063605;28;20030;-69
2021/10/14 03:12:51;;;;;;;13.68;12.25;;;12.60;99.90;;;;;;2064084;28;20041;-70
2021/10/14 03:13:52;;;;;;;14.98;11.82;;;12.60;99.90;;;;;;2069988;28;20121;-69
2021/10/14 03:14:52;;;;;;;11.23;9.63;;;12.60;99.90;;;;;;2069778;28;20037;-69
2021/10/14 03:15:53;;;;;;;15.63;11.52;;;12.60;99.90;;;;;;2062961;28;20119;-69
2021/10/14 03:16:54;;;;;;;14.68;10.95;;;12.60;99.90;;;;;;2057424;28;20102;-69
2021/10/14 03:17:54;;;;;;;12.25;9.43;;;12.60;99.90;;;;;;2063082;28;20034;-69
2021/10/14 03:18:55;;;;;;;15.23;10.80;;;12.60;99.90;;;;;;2068375;28;20018;-69
2021/10/14 03:19:56;;;;;;;15.80;11.07;;;12.60;99.90;;;;;;2067945;28;20057;-69
2021/10/14 03:20:57;;;;;;;16.35;11.48;;;12.60;99.90;;;;;;2073723;28;20443;-70
2021/10/14 03:21:57;;;;;;;11.23;10.07;;;12.60;99.90;;;;;;2063735;28;20471;-69
2021/10/14 03:22:58;;;;;;;14.80;11.10;;;12.60;99.90;;;;;;2064690;28;20515;-69
2021/10/14 03:23:59;;;;;;;16.75;12.18;;;12.60;99.90;;;;;;2063919;28;20081;-69
2021/10/14 03:24:59;;;;;;;12.45;10.85;;;12.60;99.90;;;;;;2063827;28;20022;-69
2021/10/14 03:26:02;;;;;;;13.82;11.23;;;12.60;99.90;;;;;;2063588;28;20034;-69
2021/10/14 03:27:03;;;;;;;15.40;11.68;;;12.60;99.90;;;;;;2066094;28;20022;-70
2021/10/14 03:28:04;;;;;;;10.88;9.77;;;12.60;99.90;;;;;;2068404;28;20026;-70
2021/10/14 03:29:04;;;;;;;17.52;11.65;;;12.60;99.90;;;;;;2063414;28;20041;-69
2021/10/14 03:30:05;;;;;;;15.57;10.93;;;12.60;99.90;;;;;;2063498;28;20085;-69
2021/10/14 03:31:06;;;;;;;13.63;10.88;;;12.60;99.90;;;;;;2063863;28;20037;-69
2021/10/14 03:32:06;;;;;;;17.38;11.95;;;12.60;99.90;;;;;;2063742;28;20048;-70
2021/10/14 03:33:07;;;;;;;16.02;10.57;;;12.60;99.90;;;;;;2063492;28;20034;-69
2021/10/14 03:34:08;;;;;;;19.27;9.70;;;12.70;99.90;;;;;;2063893;28;20045;-69
2021/10/14 03:35:08;;;;;;;13.23;10.88;;;12.60;99.90;;;;;;2063699;28;20026;-70
2021/10/14 03:36:09;;;;;;;18.17;12.13;;;12.70;99.90;;;;;;2067119;28;20479;-69
2021/10/14 03:37:10;;;;;;;14.60;10.77;;;12.70;99.90;;;;;;2071393;28;20018;-69
2021/10/14 03:38:10;;;;;;;15.50;11.27;;;12.70;99.90;;;;;;2066071;28;20053;-69
2021/10/14 03:39:11;;;;;;;19.92;11.80;;;12.70;99.90;;;;;;2070293;28;20054;-69
2021/10/14 03:40:12;;;;;;;17.67;12.20;;;12.70;99.90;;;;;;2069265;28;20524;-70
2021/10/14 03:41:13;;;;;;;16.15;12.18;;;12.70;99.90;;;;;;2068110;28;20022;-69
2021/10/14 03:42:14;;;;;;;15.35;12.18;;;12.70;99.90;;;;;;2071743;28;20446;-69
2021/10/14 03:43:15;;;;;;;14.57;12.40;;;12.70;99.90;;;;;;2065166;28;20029;-69
2021/10/14 03:44:17;;;;;;;16.35;11.93;;;12.70;99.90;;;;;;2068879;28;20027;-69
2021/10/14 03:45:17;;;;;;;19.33;12.45;;;12.60;99.90;;;;;;2064364;28;20022;-69
2021/10/14 03:46:18;;;;;;;16.25;11.88;;;12.70;99.90;;;;;;2065526;28;20026;-69
2021/10/14 03:47:18;;;;;;;17.88;11.43;;;12.70;99.90;;;;;;2064394;28;20031;-69
2021/10/14 03:48:19;;;;;;;17.55;11.88;;;12.70;99.90;;;;;;2071151;28;20018;-69
2021/10/14 03:49:19;;;;;;;18.33;12.38;;;12.70;99.90;;;;;;2070178;28;20339;-69
2021/10/14 03:50:20;;;;;;;17.52;12.25;;;12.70;99.90;;;;;;2069807;28;20041;-69
2021/10/14 03:51:21;;;;;;;17.83;13.43;;;12.70;99.90;;;;;;2065932;28;20046;-70
2021/10/14 03:52:21;;;;;;;18.52;12.55;;;12.70;99.90;;;;;;2067401;28;20042;-69
2021/10/14 03:53:22;;;;;;;18.35;13.63;;;12.70;99.90;;;;;;2071158;28;20025;-70
2021/10/14 03:54:22;;;;;;;16.15;12.80;;;12.70;99.90;;;;;;2064453;28;20026;-69
2021/10/14 03:55:23;;;;;;;18.50;14.13;;;12.70;99.90;;;;;;2065729;28;20668;-69
2021/10/14 03:56:24;;;;;;;18.63;14.15;;;12.70;99.90;;;;;;2071584;28;20040;-69
2021/10/14 03:57:24;;;;;;;21.40;14.15;;;12.70;99.90;;;;;;2071217;28;20045;-69
2021/10/14 03:58:25;;;;;;;18.17;13.05;;;12.70;99.90;;;;;;2070220;28;20026;-69
2021/10/14 03:59:25;;;;;;;17.08;13.70;;;12.70;99.90;;;;;;2069672;28;20029;-69
2021/10/14 04:00:26;;;;;;;18.00;13.48;;;12.70;99.90;;;;;;2067999;28;20029;-69
2021/10/14 04:01:27;;;;;;;15.10;13.50;;;12.70;99.90;;;;;;2063420;28;20046;-69
2021/10/14 04:02:27;;;;;;;19.30;14.35;;;12.70;99.90;;;;;;2062899;28;20038;-70
2021/10/14 04:03:28;;;;;;;16.73;13.68;;;12.60;99.90;;;;;;2063374;28;20479;-69
2021/10/14 04:04:28;;;;;;;17.13;14.75;;;12.60;99.90;;;;;;2071345;28;20053;-69
2021/10/14 04:05:29;;;;;;;18.92;15.32;;;12.60;99.90;;;;;;2066186;28;20608;-69
2021/10/14 04:06:29;;;;;;;23.13;14.88;;;12.60;99.90;;;;;;2063529;28;20105;-69
2021/10/14 04:07:30;;;;;;;18.70;14.48;;;12.60;99.90;;;;;;2063305;28;20022;-69
2021/10/14 04:08:31;;;;;;;18.80;14.95;;;12.60;99.90;;;;;;2063564;28;20067;-70
2021/10/14 04:09:31;;;;;;;21.13;15.18;;;12.60;99.90;;;;;;2063556;28;20034;-69
2021/10/14 04:10:32;;;;;;;17.65;14.43;;;12.70;99.90;;;;;;2063235;28;20058;-69
2021/10/14 04:11:32;;;;;;;18.90;15.20;;;12.70;99.90;;;;;;2063369;28;20039;-69
2021/10/14 04:12:33;;;;;;;17.33;14.27;;;12.70;99.90;;;;;;2063336;28;20030;-69
2021/10/14 04:13:34;;;;;;;23.58;15.48;;;12.60;99.90;;;;;;2063381;28;20081;-69
2021/10/14 04:14:34;;;;;;;22.10;15.82;;;12.70;99.90;;;;;;2062445;28;20379;-69
2021/10/14 04:15:35;;;;;;;21.70;14.77;;;12.60;99.90;;;;;;2063100;28;20031;-69
2021/10/14 04:16:35;;;;;;;22.35;16.02;;;12.60;99.90;;;;;;2064953;28;20034;-69
2021/10/14 04:17:36;;;;;;;20.58;15.77;;;12.60;99.90;;;;;;2063424;28;20042;-69
2021/10/14 04:18:37;;;;;;;19.58;15.43;;;12.70;99.90;;;;;;2068987;28;20542;-69
2021/10/14 04:19:37;;;;;;;18.38;14.93;;;12.60;99.90;;;;;;2067848;28;20060;-69
2021/10/14 04:20:38;;;;;;;19.38;14.32;;;12.70;99.90;;;;;;2068121;28;20018;-69
2021/10/14 04:21:39;;;;;;;20.17;15.85;;;12.70;99.90;;;;;;2066400;28;20026;-69
2021/10/14 04:22:39;;;;;;;22.77;16.95;;;12.60;99.90;;;;;;2070975;28;20104;-69
2021/10/14 04:23:43;;;;;;;22.80;17.05;;;12.70;99.90;;;;;;2063644;28;20026;-69
2021/10/14 04:24:45;;;;;;;22.58;16.75;;;12.60;99.90;;;;;;2063419;28;20022;-69
2021/10/14 04:25:46;;;;;;;21.90;16.98;;;12.60;99.90;;;;;;2068999;28;20072;-70
2021/10/14 04:26:46;;;;;;;24.05;17.80;;;12.60;99.90;;;;;;2069630;28;20033;-69
2021/10/14 04:27:47;;;;;;;25.63;17.85;;;12.60;99.90;;;;;;2069568;28;20105;-69
2021/10/14 04:28:47;;;;;;;22.73;18.48;;;12.60;99.90;;;;;;2070841;28;20034;-69
2021/10/14 04:29:48;;;;;;;21.67;18.50;;;12.60;99.90;;;;;;2068166;28;20042;-69
2021/10/14 04:30:49;;;;;;;27.13;18.92;;;12.60;99.90;;;;;;2069293;28;20057;-69
2021/10/14 04:31:49;;;;;;;26.50;18.52;;;12.60;99.90;;;;;;2070671;28;20022;-69
2021/10/14 04:32:50;;;;;;;29.50;19.15;;;12.60;99.90;;;;;;2069302;28;20109;-69
2021/10/14 04:33:51;;;;;;;24.88;19.15;;;12.60;99.90;;;;;;2071154;28;20029;-69
2021/10/14 04:34:51;;;;;;;27.40;19.38;;;12.60;99.90;;;;;;2070626;28;20064;-69
2021/10/14 04:35:52;;;;;;;28.35;20.42;;;12.60;99.90;;;;;;2069382;28;20030;-70
2021/10/14 04:36:52;;;;;;;28.17;20.88;;;12.60;99.90;;;;;;2070655;28;20038;-69
2021/10/14 04:37:53;;;;;;;28.27;20.67;;;12.60;99.90;;;;;;2067205;28;20410;-69
2021/10/14 04:38:55;;;;;;;31.27;21.02;;;12.60;99.90;;;;;;2069825;28;20472;-69
2021/10/14 04:39:56;;;;;;;30.50;21.77;;;12.60;99.90;;;;;;2069206;28;20025;-69
2021/10/14 04:40:56;;;;;;;25.25;20.75;;;12.60;99.90;;;;;;2068809;28;20029;-69
2021/10/14 04:41:57;;;;;;;24.63;19.83;;;12.60;99.90;;;;;;2072234;28;20026;-69
2021/10/14 04:42:57;;;;;;;31.60;21.30;;;12.60;99.90;;;;;;2069127;28;20447;-69
2021/10/14 04:43:58;;;;;;;29.65;21.25;;;12.60;99.90;;;;;;2070373;28;20347;-69
2021/10/14 04:44:59;;;;;;;38.03;22.90;;;12.60;99.90;;;;;;2070317;28;20034;-69
2021/10/14 04:45:59;;;;;;;31.70;21.77;;;12.60;99.90;;;;;;2071118;28;20018;-69
2021/10/14 04:47:04;;;;;;;27.15;21.25;;;12.60;99.90;;;;;;2069858;28;20018;-69
2021/10/14 04:48:05;;;;;;;31.95;22.13;;;12.60;99.90;;;;;;2070356;28;20034;-69
2021/10/14 04:49:05;;;;;;;28.67;21.70;;;12.60;99.90;;;;;;2070336;28;20033;-69
2021/10/14 04:50:07;;;;;;;33.47;22.77;;;12.60;99.90;;;;;;2068511;28;20113;-69
2021/10/14 04:51:08;;;;;;;28.13;21.23;;;12.60;99.90;;;;;;2070777;28;20014;-69
2021/10/14 04:52:08;;;;;;;30.95;23.60;;;12.60;99.90;;;;;;2070438;28;20080;-70
2021/10/14 04:53:09;;;;;;;30.15;22.48;;;12.60;99.90;;;;;;2070843;28;20040;-69
2021/10/14 04:54:09;;;;;;;32.00;22.42;;;12.60;99.90;;;;;;2071000;28;20022;-69
2021/10/14 04:55:10;;;;;;;31.63;22.45;;;12.70;99.90;;;;;;2070534;28;20462;-70
2021/10/14 04:56:11;;;;;;;29.58;22.52;;;12.70;99.90;;;;;;2071448;28;20073;-69
2021/10/14 04:57:11;;;;;;;37.78;23.65;;;12.70;99.90;;;;;;2068615;28;20077;-69
2021/10/14 04:58:12;;;;;;;31.75;20.98;;;12.70;99.90;;;;;;2069623;28;20017;-69
2021/10/14 04:59:12;;;;;;;37.72;23.13;;;12.70;99.90;;;;;;2071854;28;20060;-69
2021/10/14 05:00:13;;;;;;;33.63;24.13;;;12.70;99.90;;;;;;2071966;28;20478;-69
2021/10/14 05:01:14;;;;;;;35.05;25.52;;;12.70;99.90;;;;;;2068561;28;20076;-69
2021/10/14 05:02:14;;;;;;;33.50;24.25;;;12.70;99.90;;;;;;2071622;28;20018;-69
2021/10/14 05:03:15;;;;;;;37.80;25.73;;;12.70;99.90;;;;;;2072594;28;20033;-69
2021/10/14 05:04:15;;;;;;;37.75;25.38;;;12.70;99.90;;;;;;2072600;28;20022;-69
2021/10/14 05:05:16;;;;;;;39.28;25.77;;;12.70;99.90;;;;;;2073975;28;20424;-69
2021/10/14 05:06:17;;;;;;;39.03;26.67;;;12.70;99.90;;;;;;2071250;28;20046;-68
2021/10/14 05:07:17;;;;;;;34.90;25.25;;;12.70;99.90;;;;;;2072357;28;20100;-69
2021/10/14 05:08:18;;;;;;;41.65;24.73;;;12.70;99.90;;;;;;2070090;28;20022;-69
2021/10/14 05:09:18;;;;;;;34.38;26.35;;;12.70;99.90;;;;;;2074149;28;20095;-68
2021/10/14 05:10:19;;;;;;;42.65;27.08;;;12.70;99.90;;;;;;2072836;28;20057;-70